createdAt,value
2022-10-19T00:01:10.058Z,18.30
2022-10-19T00:03:43.901Z,16.40
2022-10-19T00:06:19.491Z,15.90
2022-10-19T00:08:52.496Z,14.60
2022-10-19T00:11:26.619Z,16.30
2022-10-19T00:14:01.645Z,16.10
2022-10-19T00:16:36.902Z,16.70
2022-10-19T00:19:13.286Z,15.20
2022-10-19T00:21:46.831Z,15.40
2022-10-19T00:24:20.451Z,12.60
2022-10-19T00:26:53.490Z,14.30
2022-10-19T00:29:26.560Z,14.70
2022-10-19T00:31:59.636Z,14.10
2022-10-19T00:34:32.720Z,17.80
2022-10-19T00:37:05.830Z,16.70
2022-10-19T00:39:39.754Z,17.40
2022-10-19T00:42:15.194Z,16.30
2022-10-19T00:45:14.373Z,18.40
2022-10-19T00:47:48.620Z,18.50
2022-10-19T00:50:21.997Z,18.00
2022-10-19T00:52:55.196Z,20.00
2022-10-19T00:55:28.717Z,19.50
2022-10-19T00:58:02.314Z,15.90
2022-10-19T01:00:35.550Z,17.20
2022-10-19T01:03:10.555Z,16.00
2022-10-19T01:05:44.413Z,19.60
2022-10-19T01:08:18.131Z,18.80
2022-10-19T01:11:02.804Z,17.30
2022-10-19T01:13:48.358Z,16.50
2022-10-19T01:16:30.658Z,16.70
2022-10-19T01:19:16.682Z,15.10
2022-10-19T01:21:57.813Z,18.40
2022-10-19T01:24:52.212Z,18.60
2022-10-19T01:27:54.819Z,14.40
2022-10-19T01:30:39.039Z,18.40
2022-10-19T01:33:23.717Z,16.40
2022-10-19T01:36:04.555Z,13.40
2022-10-19T01:38:47.798Z,15.30
2022-10-19T01:41:28.872Z,15.50
2022-10-19T01:44:10.128Z,13.30
2022-10-19T01:46:45.496Z,15.10
2022-10-19T01:49:22.420Z,14.60
2022-10-19T01:52:00.851Z,17.10
2022-10-19T01:54:40.037Z,17.10
2022-10-19T01:57:19.109Z,17.20
2022-10-19T01:59:53.816Z,17.20
2022-10-19T02:02:29.566Z,17.90
2022-10-19T02:05:04.491Z,15.70
2022-10-19T02:07:40.488Z,15.00
2022-10-19T02:12:48.477Z,18.30
2022-10-19T02:15:25.368Z,15.70
2022-10-19T02:18:02.243Z,16.50
2022-10-19T02:20:36.450Z,18.10
2022-10-19T02:23:09.963Z,18.40
2022-10-19T02:25:43.062Z,18.40
2022-10-19T02:28:16.255Z,16.40
2022-10-19T02:30:49.557Z,20.40
2022-10-19T02:33:22.802Z,16.90
2022-10-19T02:35:56.515Z,19.60
2022-10-19T02:38:30.359Z,17.70
2022-10-19T02:41:09.600Z,19.80
2022-10-19T02:43:47.067Z,19.00
2022-10-19T02:46:28.565Z,18.70
2022-10-19T02:49:03.572Z,17.50
2022-10-19T02:51:38.514Z,17.50
2022-10-19T02:54:11.831Z,18.10
2022-10-19T02:56:44.796Z,19.70
2022-10-19T02:59:17.693Z,18.60
2022-10-19T03:01:50.871Z,19.40
2022-10-19T03:04:23.980Z,19.90
2022-10-19T03:06:57.425Z,18.90
2022-10-19T03:09:30.784Z,19.90
2022-10-19T03:12:04.332Z,17.90
2022-10-19T03:14:37.358Z,14.90
2022-10-19T03:17:10.817Z,18.50
2022-10-19T03:19:43.685Z,20.10
2022-10-19T03:22:17.799Z,18.20
2022-10-19T03:24:51.404Z,19.80
2022-10-19T03:27:24.428Z,14.80
2022-10-19T03:29:57.440Z,16.80
2022-10-19T03:32:30.387Z,19.00
2022-10-19T03:35:03.490Z,18.80
2022-10-19T03:37:36.747Z,19.30
2022-10-19T03:40:11.727Z,16.60
2022-10-19T03:42:44.592Z,15.50
2022-10-19T03:45:17.714Z,15.50
2022-10-19T03:47:54.004Z,18.60
2022-10-19T03:50:27.153Z,19.80
2022-10-19T03:53:00.323Z,16.00
2022-10-19T03:55:33.519Z,17.90
2022-10-19T03:58:06.607Z,13.70
2022-10-19T04:00:41.555Z,15.90
2022-10-19T04:03:14.495Z,15.90
2022-10-19T04:05:47.489Z,15.60
2022-10-19T04:08:20.663Z,15.70
2022-10-19T04:10:53.809Z,14.70
2022-10-19T04:13:26.801Z,13.90
2022-10-19T04:16:00.451Z,18.50
2022-10-19T04:18:33.813Z,13.60
2022-10-19T04:21:07.752Z,15.60
2022-10-19T04:23:40.642Z,13.50
2022-10-19T04:26:13.556Z,15.40
2022-10-19T04:28:46.658Z,15.10
2022-10-19T04:31:20.031Z,13.40
2022-10-19T04:33:53.308Z,13.80
2022-10-19T04:36:26.445Z,15.80
2022-10-19T04:38:59.475Z,16.80
2022-10-19T04:41:33.364Z,14.40
2022-10-19T04:44:07.952Z,13.50
2022-10-19T04:46:40.933Z,11.40
2022-10-19T04:49:16.500Z,14.80
2022-10-19T04:54:24.470Z,12.80
2022-10-19T04:56:57.617Z,13.50
2022-10-19T04:59:30.678Z,14.10
2022-10-19T05:02:03.649Z,14.50
2022-10-19T05:04:36.680Z,13.20
2022-10-19T05:07:09.765Z,11.90
2022-10-19T05:09:42.954Z,14.50
2022-10-19T05:12:16.201Z,15.20
2022-10-19T05:14:49.555Z,12.30
2022-10-19T05:17:22.587Z,13.40
2022-10-19T05:19:55.746Z,13.30
2022-10-19T05:22:28.995Z,14.40
2022-10-19T05:25:02.424Z,12.60
2022-10-19T05:27:36.248Z,14.40
2022-10-19T05:30:11.847Z,13.10
2022-10-19T05:32:44.759Z,14.40
2022-10-19T05:35:21.507Z,15.40
2022-10-19T05:37:59.180Z,12.20
2022-10-19T05:40:32.401Z,14.70
2022-10-19T05:43:05.493Z,12.60
2022-10-19T05:45:38.508Z,12.80
2022-10-19T05:48:11.692Z,14.50
2022-10-19T05:50:53.970Z,13.90
2022-10-19T05:53:27.162Z,13.40
2022-10-19T05:56:00.419Z,11.60
2022-10-19T05:58:33.580Z,12.80
2022-10-19T06:01:06.904Z,12.70
2022-10-19T06:03:40.202Z,12.70
2022-10-19T06:06:13.422Z,12.10
2022-10-19T06:08:46.649Z,13.00
2022-10-19T06:11:21.472Z,10.70
2022-10-19T06:13:57.310Z,12.10
2022-10-19T06:16:32.012Z,10.90
2022-10-19T06:19:06.201Z,11.60
2022-10-19T06:21:41.900Z,13.80
2022-10-19T06:24:18.222Z,10.30
2022-10-19T06:26:51.302Z,8.80
2022-10-19T06:29:24.373Z,10.20
2022-10-19T06:32:00.019Z,14.20
2022-10-19T06:34:33.403Z,10.50
2022-10-19T06:37:06.743Z,14.20
2022-10-19T06:39:39.793Z,10.60
2022-10-19T06:42:12.967Z,14.40
2022-10-19T06:44:46.993Z,11.30
2022-10-19T06:47:20.045Z,12.10
2022-10-19T06:49:53.381Z,11.00
2022-10-19T06:52:26.896Z,12.80
2022-10-19T06:55:00.143Z,14.00
2022-10-19T06:57:33.986Z,13.10
2022-10-19T07:00:09.166Z,12.40
2022-10-19T07:02:42.079Z,11.90
2022-10-19T07:05:15.077Z,9.10
2022-10-19T07:07:48.126Z,12.90
2022-10-19T07:10:21.637Z,10.50
2022-10-19T07:12:54.694Z,9.80
2022-10-19T07:15:27.694Z,10.30
2022-10-19T07:18:00.809Z,7.80
2022-10-19T07:20:34.138Z,10.10
2022-10-19T07:23:07.409Z,12.00
2022-10-19T07:25:41.099Z,9.60
2022-10-19T07:28:14.238Z,8.00
2022-10-19T07:30:47.373Z,8.50
2022-10-19T07:33:20.443Z,6.70
2022-10-19T07:36:00.279Z,6.20
2022-10-19T07:38:34.904Z,7.50
2022-10-19T07:41:10.600Z,5.60
2022-10-19T07:43:45.140Z,9.30
2022-10-19T07:46:19.838Z,9.80
2022-10-19T07:48:53.715Z,9.20
2022-10-19T07:51:26.767Z,8.00
2022-10-19T07:54:00.983Z,8.20
2022-10-19T07:56:34.773Z,7.80
2022-10-19T07:59:07.942Z,8.60
2022-10-19T08:01:43.540Z,8.20
2022-10-19T08:07:11.379Z,11.60
2022-10-19T08:09:52.935Z,9.00
2022-10-19T08:12:26.959Z,10.30
2022-10-19T08:15:00.513Z,8.20
2022-10-19T08:17:33.722Z,7.80
2022-10-19T08:20:08.639Z,9.20
2022-10-19T08:22:42.167Z,9.80
2022-10-19T08:25:15.281Z,13.60
2022-10-19T08:27:48.209Z,7.70
2022-10-19T08:30:21.237Z,9.90
2022-10-19T08:32:54.188Z,9.00
2022-10-19T08:35:27.058Z,9.20
2022-10-19T08:38:02.095Z,8.50
2022-10-19T08:40:36.403Z,7.40
2022-10-19T08:43:20.474Z,8.80
2022-10-19T08:46:01.161Z,8.90
2022-10-19T08:48:39.556Z,10.20
2022-10-19T08:51:15.007Z,9.40
2022-10-19T08:53:55.555Z,11.00
2022-10-19T08:56:51.542Z,8.80
2022-10-19T08:59:38.074Z,7.20
2022-10-19T09:02:19.546Z,6.20
2022-10-19T09:05:00.237Z,7.70
2022-10-19T09:07:37.343Z,5.70
2022-10-19T09:10:20.933Z,6.80
2022-10-19T09:12:59.694Z,6.70
2022-10-19T09:15:40.729Z,7.30
2022-10-19T09:18:16.652Z,6.10
2022-10-19T09:20:52.482Z,7.00
2022-10-19T09:23:31.281Z,6.80
2022-10-19T09:26:05.305Z,6.80
2022-10-19T09:28:48.558Z,6.50
2022-10-19T09:31:31.440Z,9.80
2022-10-19T09:34:09.269Z,6.60
2022-10-19T09:36:52.239Z,9.50
2022-10-19T09:39:28.557Z,7.10
2022-10-19T09:42:09.515Z,10.50
2022-10-19T09:44:42.753Z,8.00
2022-10-19T09:47:30.897Z,8.70
2022-10-19T09:50:22.380Z,5.40
2022-10-19T09:52:58.198Z,6.20
2022-10-19T09:55:40.116Z,7.60
2022-10-19T09:58:21.116Z,6.50
2022-10-19T10:00:56.368Z,5.90
2022-10-19T10:03:32.536Z,3.80
2022-10-19T10:06:10.094Z,5.20
2022-10-19T10:08:47.862Z,4.90
2022-10-19T10:11:29.480Z,6.10
2022-10-19T10:14:16.934Z,2.00
2022-10-19T10:16:56.180Z,1.50
2022-10-19T10:19:33.326Z,1.50
2022-10-19T10:22:07.228Z,2.30
2022-10-19T10:24:56.189Z,4.90
2022-10-19T10:27:38.882Z,1.60
2022-10-19T10:30:20.497Z,2.20
2022-10-19T10:32:57.994Z,1.80
2022-10-19T10:35:37.797Z,4.70
2022-10-19T10:38:16.632Z,2.50
2022-10-19T10:43:32.591Z,2.90
2022-10-19T10:46:09.836Z,1.00
2022-10-19T10:48:47.677Z,3.10
2022-10-19T10:51:30.549Z,1.30
2022-10-19T10:54:18.335Z,3.20
2022-10-19T10:57:06.654Z,1.70
2022-10-19T10:59:47.983Z,4.80
2022-10-19T11:02:34.297Z,3.80
2022-10-19T11:05:13.519Z,2.80
2022-10-19T11:07:48.181Z,3.50
2022-10-19T11:10:28.267Z,1.60
2022-10-19T11:13:08.695Z,3.40
2022-10-19T11:15:49.005Z,2.20
2022-10-19T11:18:26.922Z,2.60
2022-10-19T11:21:08.001Z,3.20
2022-10-19T11:23:51.948Z,2.20
2022-10-19T11:26:36.975Z,3.00
2022-10-19T11:29:32.588Z,2.60
2022-10-19T11:32:14.509Z,3.20
2022-10-19T11:35:04.552Z,2.90
2022-10-19T11:38:06.699Z,2.50
2022-10-19T11:41:16.466Z,3.30
2022-10-19T11:43:58.316Z,1.30
2022-10-19T11:46:40.312Z,1.80
2022-10-19T11:49:29.221Z,2.50
2022-10-19T11:52:08.919Z,4.00
2022-10-19T11:55:01.637Z,2.30
2022-10-19T11:57:51.214Z,4.20
2022-10-19T12:00:38.676Z,2.40
2022-10-19T12:06:13.208Z,4.20
2022-10-19T12:09:08.943Z,2.90
2022-10-19T12:11:57.984Z,3.70
2022-10-19T12:14:37.575Z,2.80
2022-10-19T12:17:16.557Z,2.30
2022-10-19T12:19:53.842Z,3.10
2022-10-19T12:22:30.674Z,2.20
2022-10-19T12:25:05.215Z,5.80
2022-10-19T12:27:41.033Z,3.30
2022-10-19T12:30:18.887Z,2.60
2022-10-19T12:33:07.421Z,2.60
2022-10-19T12:36:01.059Z,2.70
2022-10-19T12:38:46.112Z,4.20
2022-10-19T12:41:29.133Z,2.40
2022-10-19T12:44:32.825Z,2.20
2022-10-19T12:47:13.691Z,1.70
2022-10-19T12:49:51.237Z,2.30
2022-10-19T12:52:43.054Z,3.30
2022-10-19T12:55:30.054Z,3.70
2022-10-19T12:58:05.975Z,2.20
2022-10-19T13:00:40.863Z,2.60
2022-10-19T13:03:26.376Z,3.30
2022-10-19T13:06:04.494Z,4.00
2022-10-19T13:08:44.212Z,3.20
2022-10-19T13:11:18.397Z,3.10
2022-10-19T13:14:06.589Z,2.80
2022-10-19T13:17:01.062Z,2.10
2022-10-19T13:19:34.839Z,2.30
2022-10-19T13:22:28.791Z,3.60
2022-10-19T13:25:24.420Z,2.10
2022-10-19T13:28:02.158Z,4.60
2022-10-19T13:31:08.224Z,3.70
2022-10-19T13:33:52.405Z,2.00
2022-10-19T13:36:28.017Z,1.70
2022-10-19T13:39:13.722Z,2.60
2022-10-19T13:41:53.768Z,1.90
2022-10-19T13:44:31.209Z,2.70
2022-10-19T13:47:33.308Z,3.40
2022-10-19T13:50:32.838Z,2.20
2022-10-19T13:53:25.457Z,3.30
2022-10-19T13:56:19.251Z,2.30
2022-10-19T13:59:34.175Z,5.40
2022-10-19T14:02:36.430Z,3.00
2022-10-19T14:05:27.246Z,4.70
2022-10-19T14:08:12.009Z,3.40
2022-10-19T14:11:00.768Z,5.20
2022-10-19T14:13:36.558Z,1.80
2022-10-19T14:16:19.146Z,2.10
2022-10-19T14:18:58.835Z,3.50
2022-10-19T14:21:37.217Z,3.20
2022-10-19T14:24:29.357Z,2.40
2022-10-19T14:27:05.155Z,3.00
2022-10-19T14:29:46.360Z,3.00
2022-10-19T14:32:22.664Z,2.00
2022-10-19T14:34:59.746Z,3.80
2022-10-19T14:37:33.521Z,3.60
2022-10-19T14:40:26.805Z,1.70
2022-10-19T14:43:03.000Z,2.80
2022-10-19T14:45:37.589Z,2.40
2022-10-19T14:48:20.418Z,2.20
2022-10-19T14:50:57.398Z,5.20
2022-10-19T14:53:41.677Z,2.10
2022-10-19T14:56:20.004Z,2.60
2022-10-19T14:58:59.729Z,2.60
2022-10-19T15:01:33.143Z,2.20
2022-10-19T15:04:06.644Z,3.50
2022-10-19T15:06:43.475Z,2.80
2022-10-19T15:09:37.174Z,4.00
2022-10-19T15:12:21.062Z,2.60
2022-10-19T15:14:55.495Z,1.70
2022-10-19T15:17:31.734Z,3.00
2022-10-19T15:20:19.284Z,4.70
2022-10-19T15:22:52.853Z,2.30
2022-10-19T15:25:37.315Z,2.60
2022-10-19T15:28:39.060Z,2.50
2022-10-19T15:31:21.097Z,3.20
2022-10-19T15:33:56.537Z,4.40
2022-10-19T15:36:31.113Z,2.10
2022-10-19T15:42:35.355Z,4.80
2022-10-19T15:45:34.101Z,1.60
2022-10-19T15:48:29.972Z,3.20
2022-10-19T15:51:03.596Z,4.90
2022-10-19T15:53:36.945Z,5.20
2022-10-19T15:56:13.549Z,5.20
2022-10-19T15:58:54.227Z,3.50
2022-10-19T16:01:30.142Z,4.30
2022-10-19T16:04:03.809Z,2.70
2022-10-19T16:06:38.537Z,2.80
2022-10-19T16:09:20.425Z,3.30
2022-10-19T16:11:57.859Z,6.30
2022-10-19T16:14:34.364Z,2.70
2022-10-19T16:17:12.459Z,3.00
2022-10-19T16:19:46.402Z,3.40
2022-10-19T16:22:20.495Z,2.50
2022-10-19T16:24:53.822Z,3.00
2022-10-19T16:27:27.416Z,5.90
2022-10-19T16:30:01.168Z,7.20
2022-10-19T16:32:35.180Z,5.00
2022-10-19T16:35:10.901Z,8.20
2022-10-19T16:37:45.349Z,4.90
2022-10-19T16:40:18.936Z,8.10
2022-10-19T16:42:52.692Z,3.60
2022-10-19T16:45:26.743Z,6.70
2022-10-19T16:48:01.108Z,8.70
2022-10-19T16:50:35.303Z,3.20
2022-10-19T16:53:12.456Z,5.60
2022-10-19T16:55:45.869Z,5.00
2022-10-19T16:58:19.561Z,4.90
2022-10-19T17:00:53.537Z,5.80
2022-10-19T17:03:28.512Z,6.10
2022-10-19T17:06:03.147Z,7.00
2022-10-19T17:09:02.668Z,5.50
2022-10-19T17:11:34.546Z,7.60
2022-10-19T17:14:10.903Z,6.90
2022-10-19T17:16:44.351Z,6.80
2022-10-19T17:19:18.119Z,6.70
2022-10-19T17:21:51.954Z,3.80
2022-10-19T17:24:27.360Z,7.20
2022-10-19T17:27:04.718Z,6.10
2022-10-19T17:29:39.104Z,3.20
2022-10-19T17:32:13.545Z,6.40
2022-10-19T17:34:47.966Z,11.60
2022-10-19T17:37:21.639Z,6.90
2022-10-19T17:39:56.076Z,6.60
2022-10-19T17:42:30.927Z,6.00
2022-10-19T17:45:05.259Z,6.20
2022-10-19T17:47:39.700Z,6.40
2022-10-19T17:50:14.078Z,7.90
2022-10-19T17:52:47.717Z,6.60
2022-10-19T17:55:25.915Z,5.70
2022-10-19T17:57:59.683Z,5.80
2022-10-19T18:00:33.455Z,5.40
2022-10-19T18:03:07.849Z,5.60
2022-10-19T18:05:42.119Z,5.60
2022-10-19T18:08:16.706Z,6.40
2022-10-19T18:10:57.190Z,7.80
2022-10-19T18:13:32.186Z,8.80
2022-10-19T18:16:08.013Z,7.80
2022-10-19T18:18:44.607Z,11.30
2022-10-19T18:21:21.106Z,10.40
2022-10-19T18:23:57.220Z,10.30
2022-10-19T18:26:33.725Z,10.70
2022-10-19T18:29:14.004Z,11.00
2022-10-19T18:31:52.044Z,14.00
2022-10-19T18:34:28.752Z,12.40
2022-10-19T18:37:02.607Z,13.10
2022-10-19T18:39:37.751Z,12.30
2022-10-19T18:42:13.483Z,10.30
2022-10-19T18:44:57.556Z,8.30
2022-10-19T18:47:32.665Z,9.20
2022-10-19T18:50:09.037Z,10.50
2022-10-19T18:52:44.023Z,10.20
2022-10-19T18:55:18.239Z,11.30
2022-10-19T18:57:54.150Z,12.20
2022-10-19T19:00:28.314Z,13.10
2022-10-19T19:03:04.639Z,13.90
2022-10-19T19:05:38.365Z,16.50
2022-10-19T19:08:15.945Z,14.30
2022-10-19T19:10:50.016Z,14.90
2022-10-19T19:13:24.423Z,14.10
2022-10-19T19:16:02.136Z,13.20
2022-10-19T19:18:37.228Z,14.30
2022-10-19T19:21:18.018Z,10.20
2022-10-19T19:23:53.298Z,12.30
2022-10-19T19:26:29.398Z,13.40
2022-10-19T19:29:04.184Z,10.50
2022-10-19T19:31:40.081Z,14.60
2022-10-19T19:34:14.620Z,11.50
2022-10-19T19:36:49.834Z,13.30
2022-10-19T19:39:28.189Z,10.70
2022-10-19T19:42:02.384Z,10.70
2022-10-19T19:44:37.706Z,10.80
2022-10-19T19:47:12.981Z,11.30
2022-10-19T19:49:50.181Z,10.60
2022-10-19T19:52:24.750Z,11.80
2022-10-19T19:54:58.694Z,11.20
2022-10-19T19:57:33.678Z,9.40
2022-10-19T20:00:10.990Z,11.30
2022-10-19T20:02:52.992Z,11.10
2022-10-19T20:05:27.783Z,11.50
2022-10-19T20:08:01.520Z,11.00
2022-10-19T20:10:35.612Z,11.00
2022-10-19T20:13:09.848Z,11.30
2022-10-19T20:15:43.567Z,9.60
2022-10-19T20:18:17.326Z,9.70
2022-10-19T20:20:54.211Z,10.50
2022-10-19T20:23:29.450Z,11.20
2022-10-19T20:26:04.124Z,15.40
2022-10-19T20:28:38.032Z,11.90
2022-10-19T20:31:13.124Z,14.10
2022-10-19T20:33:48.706Z,12.10
2022-10-19T20:36:25.455Z,12.40
2022-10-19T20:39:00.769Z,21.80
2022-10-19T20:41:35.442Z,25.00
2022-10-19T20:44:08.958Z,16.60
2022-10-19T20:46:43.109Z,15.80
2022-10-19T20:49:18.624Z,15.00
2022-10-19T20:51:54.935Z,12.80
2022-10-19T20:54:28.635Z,13.00
2022-10-19T20:57:02.136Z,15.20
2022-10-19T20:59:37.675Z,15.50
2022-10-19T21:02:13.527Z,13.50
2022-10-19T21:04:47.948Z,13.80
2022-10-19T21:07:21.270Z,15.60
2022-10-19T21:09:55.545Z,18.40
2022-10-19T21:12:28.891Z,17.20
2022-10-19T21:15:02.240Z,13.30
2022-10-19T21:17:35.821Z,12.70
2022-10-19T21:20:10.944Z,16.60
2022-10-19T21:22:44.451Z,12.80
2022-10-19T21:25:18.390Z,15.40
2022-10-19T21:27:54.817Z,15.60
2022-10-19T21:30:28.515Z,19.10
2022-10-19T21:33:01.941Z,18.10
2022-10-19T21:35:37.139Z,15.40
2022-10-19T21:38:11.019Z,13.20
2022-10-19T21:40:44.488Z,18.30
2022-10-19T21:43:18.114Z,20.50
2022-10-19T21:45:51.530Z,14.40
2022-10-19T21:48:25.530Z,11.00
2022-10-19T21:50:58.949Z,13.80
2022-10-19T21:53:32.270Z,27.30
2022-10-19T21:56:05.563Z,14.90
2022-10-19T21:58:38.958Z,15.50
2022-10-19T22:01:12.005Z,16.70
2022-10-19T22:03:45.445Z,31.20
2022-10-19T22:06:37.756Z,30.70
2022-10-19T22:09:13.309Z,27.30
2022-10-19T22:11:47.870Z,31.10
2022-10-19T22:14:21.821Z,31.40
2022-10-19T22:16:55.077Z,24.40
2022-10-19T22:19:28.750Z,20.60
2022-10-19T22:22:02.532Z,11.80
2022-10-19T22:24:36.340Z,10.30
2022-10-19T22:27:09.257Z,14.10
2022-10-19T22:29:42.892Z,15.00
2022-10-19T22:32:16.312Z,21.10
2022-10-19T22:34:49.849Z,20.00
2022-10-19T22:37:23.361Z,15.70
2022-10-19T22:39:56.497Z,15.30
2022-10-19T22:42:31.204Z,13.50
2022-10-19T22:45:05.215Z,11.50
2022-10-19T22:47:38.975Z,14.80
2022-10-19T22:50:13.107Z,22.40
2022-10-19T22:52:46.482Z,25.30
2022-10-19T22:55:20.127Z,22.00
2022-10-19T22:57:53.855Z,14.50
2022-10-19T23:00:27.660Z,14.10
2022-10-19T23:03:01.336Z,11.50
2022-10-19T23:05:35.469Z,13.40
2022-10-19T23:08:09.320Z,13.40
2022-10-19T23:10:42.897Z,18.60
2022-10-19T23:13:16.173Z,16.50
2022-10-19T23:15:50.836Z,18.50
2022-10-19T23:18:24.701Z,15.50
2022-10-19T23:21:00.367Z,15.60
2022-10-19T23:23:34.994Z,12.80
2022-10-19T23:26:10.995Z,10.20
2022-10-19T23:28:46.871Z,11.20
2022-10-19T23:31:24.000Z,11.40
2022-10-19T23:33:58.181Z,12.90
2022-10-19T23:36:32.494Z,11.60
2022-10-19T23:39:06.145Z,10.20
2022-10-19T23:41:39.717Z,10.90
2022-10-19T23:44:12.884Z,11.50
2022-10-19T23:46:46.177Z,11.10
2022-10-19T23:49:19.615Z,11.50
2022-10-19T23:51:53.067Z,19.90
2022-10-19T23:54:26.898Z,17.50
2022-10-19T23:57:00.103Z,23.80
2022-10-19T23:59:33.503Z,19.80
